sensor_id;sensor_type;location;lat;lon;timestamp;P1;durP1;ratioP1;P2;durP2;ratioP2
38811;SDS011;24553;51.640;-0.752;2022-09-09T00:00:38;3.30;;;0.77;;
38811;SDS011;24553;51.640;-0.752;2022-09-09T00:03:12;7.75;;;1.45;;
38811;SDS011;24553;51.640;-0.752;2022-09-09T00:08:44;6.80;;;1.10;;
38811;SDS011;24553;51.640;-0.752;2022-09-09T00:11:18;4.45;;;0.60;;
38811;SDS011;24553;51.640;-0.752;2022-09-09T00:13:54;2.42;;;1.25;;
38811;SDS011;24553;51.640;-0.752;2022-09-09T00:16:27;10.02;;;1.13;;
38811;SDS011;24553;51.640;-0.752;2022-09-09T00:24:42;7.85;;;1.80;;
38811;SDS011;24553;51.640;-0.752;2022-09-09T00:27:16;8.18;;;1.30;;
38811;SDS011;24553;51.640;-0.752;2022-09-09T00:30:24;7.15;;;0.47;;
38811;SDS011;24553;51.640;-0.752;2022-09-09T00:32:48;4.35;;;0.93;;
38811;SDS011;24553;51.640;-0.752;2022-09-09T00:35:21;4.38;;;0.80;;
38811;SDS011;24553;51.640;-0.752;2022-09-09T00:38:02;9.43;;;2.17;;
38811;SDS011;24553;51.640;-0.752;2022-09-09T00:40:37;3.38;;;1.05;;
38811;SDS011;24553;51.640;-0.752;2022-09-09T00:49:04;6.30;;;1.15;;
38811;SDS011;24553;51.640;-0.752;2022-09-09T00:51:59;2.33;;;0.98;;
38811;SDS011;24553;51.640;-0.752;2022-09-09T00:59:32;6.53;;;1.40;;
38811;SDS011;24553;51.640;-0.752;2022-09-09T01:02:16;5.45;;;1.55;;
38811;SDS011;24553;51.640;-0.752;2022-09-09T01:04:55;7.53;;;0.82;;
38811;SDS011;24553;51.640;-0.752;2022-09-09T01:07:28;4.57;;;1.60;;
38811;SDS011;24553;51.640;-0.752;2022-09-09T01:09:57;5.68;;;0.90;;
38811;SDS011;24553;51.640;-0.752;2022-09-09T01:12:34;4.18;;;1.08;;
38811;SDS011;24553;51.640;-0.752;2022-09-09T01:15:10;6.00;;;0.70;;
38811;SDS011;24553;51.640;-0.752;2022-09-09T01:17:46;3.13;;;1.23;;
38811;SDS011;24553;51.640;-0.752;2022-09-09T01:20:19;6.45;;;0.77;;
38811;SDS011;24553;51.640;-0.752;2022-09-09T01:28:29;1.35;;;0.70;;
38811;SDS011;24553;51.640;-0.752;2022-09-09T01:30:56;4.18;;;1.05;;
38811;SDS011;24553;51.640;-0.752;2022-09-09T01:33:23;2.50;;;0.50;;
38811;SDS011;24553;51.640;-0.752;2022-09-09T01:38:38;2.08;;;0.75;;
38811;SDS011;24553;51.640;-0.752;2022-09-09T01:41:04;5.13;;;0.65;;
38811;SDS011;24553;51.640;-0.752;2022-09-09T01:43:30;5.53;;;0.80;;
38811;SDS011;24553;51.640;-0.752;2022-09-09T01:45:56;8.50;;;0.52;;
38811;SDS011;24553;51.640;-0.752;2022-09-09T01:48:25;3.65;;;0.85;;
38811;SDS011;24553;51.640;-0.752;2022-09-09T01:50:52;3.13;;;0.32;;
38811;SDS011;24553;51.640;-0.752;2022-09-09T01:53:18;0.95;;;0.20;;
38811;SDS011;24553;51.640;-0.752;2022-09-09T01:58:57;4.32;;;0.60;;
38811;SDS011;24553;51.640;-0.752;2022-09-09T02:04:23;1.73;;;0.60;;
38811;SDS011;24553;51.640;-0.752;2022-09-09T02:07:03;5.13;;;0.35;;
38811;SDS011;24553;51.640;-0.752;2022-09-09T02:09:35;1.40;;;0.20;;
38811;SDS011;24553;51.640;-0.752;2022-09-09T02:12:11;0.73;;;0.60;;
38811;SDS011;24553;51.640;-0.752;2022-09-09T02:14:43;8.40;;;1.67;;
38811;SDS011;24553;51.640;-0.752;2022-09-09T02:17:15;0.90;;;0.25;;
38811;SDS011;24553;51.640;-0.752;2022-09-09T02:19:47;3.22;;;0.25;;
38811;SDS011;24553;51.640;-0.752;2022-09-09T02:22:16;0.75;;;0.30;;
38811;SDS011;24553;51.640;-0.752;2022-09-09T02:24:44;2.53;;;0.30;;
38811;SDS011;24553;51.640;-0.752;2022-09-09T02:27:11;5.95;;;0.45;;
38811;SDS011;24553;51.640;-0.752;2022-09-09T02:29:39;0.88;;;0.30;;
38811;SDS011;24553;51.640;-0.752;2022-09-09T02:32:14;1.23;;;0.20;;
38811;SDS011;24553;51.640;-0.752;2022-09-09T02:34:44;0.40;;;0.17;;
38811;SDS011;24553;51.640;-0.752;2022-09-09T02:37:13;1.95;;;0.25;;
38811;SDS011;24553;51.640;-0.752;2022-09-09T02:39:41;1.40;;;1.08;;
38811;SDS011;24553;51.640;-0.752;2022-09-09T02:42:07;2.45;;;0.30;;
38811;SDS011;24553;51.640;-0.752;2022-09-09T02:44:33;2.92;;;0.55;;
38811;SDS011;24553;51.640;-0.752;2022-09-09T02:49:39;4.03;;;1.00;;
38811;SDS011;24553;51.640;-0.752;2022-09-09T02:52:15;2.30;;;0.60;;
38811;SDS011;24553;51.640;-0.752;2022-09-09T02:54:44;0.52;;;0.50;;
38811;SDS011;24553;51.640;-0.752;2022-09-09T02:59:48;3.63;;;1.02;;
38811;SDS011;24553;51.640;-0.752;2022-09-09T03:02:14;5.13;;;0.88;;
38811;SDS011;24553;51.640;-0.752;2022-09-09T03:04:40;5.78;;;0.77;;
38811;SDS011;24553;51.640;-0.752;2022-09-09T03:07:09;1.15;;;0.55;;
38811;SDS011;24553;51.640;-0.752;2022-09-09T03:09:35;8.60;;;1.17;;
38811;SDS011;24553;51.640;-0.752;2022-09-09T03:12:00;2.63;;;1.15;;
38811;SDS011;24553;51.640;-0.752;2022-09-09T03:14:26;4.28;;;1.15;;
38811;SDS011;24553;51.640;-0.752;2022-09-09T03:16:51;6.90;;;1.48;;
38811;SDS011;24553;51.640;-0.752;2022-09-09T03:19:18;4.68;;;0.98;;
38811;SDS011;24553;51.640;-0.752;2022-09-09T03:21:44;3.47;;;0.88;;
38811;SDS011;24553;51.640;-0.752;2022-09-09T03:24:10;9.63;;;3.22;;
38811;SDS011;24553;51.640;-0.752;2022-09-09T03:26:36;5.78;;;1.65;;
38811;SDS011;24553;51.640;-0.752;2022-09-09T03:29:02;4.25;;;2.08;;
38811;SDS011;24553;51.640;-0.752;2022-09-09T03:31:31;5.72;;;1.40;;
38811;SDS011;24553;51.640;-0.752;2022-09-09T03:33:57;11.00;;;1.92;;
38811;SDS011;24553;51.640;-0.752;2022-09-09T03:36:23;8.43;;;1.50;;
38811;SDS011;24553;51.640;-0.752;2022-09-09T03:38:48;4.57;;;1.42;;
38811;SDS011;24553;51.640;-0.752;2022-09-09T03:41:15;3.53;;;1.55;;
38811;SDS011;24553;51.640;-0.752;2022-09-09T03:43:41;5.50;;;2.10;;
38811;SDS011;24553;51.640;-0.752;2022-09-09T03:46:06;5.07;;;1.75;;
38811;SDS011;24553;51.640;-0.752;2022-09-09T03:48:32;6.53;;;2.78;;
38811;SDS011;24553;51.640;-0.752;2022-09-09T03:50:57;9.10;;;2.92;;
38811;SDS011;24553;51.640;-0.752;2022-09-09T03:53:25;3.05;;;1.77;;
38811;SDS011;24553;51.640;-0.752;2022-09-09T03:55:51;4.45;;;1.50;;
38811;SDS011;24553;51.640;-0.752;2022-09-09T03:58:20;3.08;;;2.05;;
38811;SDS011;24553;51.640;-0.752;2022-09-09T04:03:28;4.95;;;1.85;;
38811;SDS011;24553;51.640;-0.752;2022-09-09T04:05:55;5.32;;;3.13;;
38811;SDS011;24553;51.640;-0.752;2022-09-09T04:08:22;5.43;;;2.13;;
38811;SDS011;24553;51.640;-0.752;2022-09-09T04:10:50;8.27;;;2.65;;
38811;SDS011;24553;51.640;-0.752;2022-09-09T04:13:16;3.17;;;2.60;;
38811;SDS011;24553;51.640;-0.752;2022-09-09T04:15:43;5.95;;;2.95;;
38811;SDS011;24553;51.640;-0.752;2022-09-09T04:18:10;4.60;;;1.90;;
38811;SDS011;24553;51.640;-0.752;2022-09-09T04:20:36;5.40;;;2.15;;
38811;SDS011;24553;51.640;-0.752;2022-09-09T04:23:02;2.92;;;1.98;;
38811;SDS011;24553;51.640;-0.752;2022-09-09T04:25:28;5.90;;;2.58;;
38811;SDS011;24553;51.640;-0.752;2022-09-09T04:27:54;4.20;;;2.70;;
38811;SDS011;24553;51.640;-0.752;2022-09-09T04:30:21;12.27;;;2.72;;
38811;SDS011;24553;51.640;-0.752;2022-09-09T04:32:47;7.07;;;2.58;;
38811;SDS011;24553;51.640;-0.752;2022-09-09T04:35:12;4.70;;;2.85;;
38811;SDS011;24553;51.640;-0.752;2022-09-09T04:37:38;5.63;;;3.10;;
38811;SDS011;24553;51.640;-0.752;2022-09-09T04:40:03;9.27;;;2.85;;
38811;SDS011;24553;51.640;-0.752;2022-09-09T04:42:29;3.10;;;2.72;;
38811;SDS011;24553;51.640;-0.752;2022-09-09T04:44:54;8.70;;;3.28;;
38811;SDS011;24553;51.640;-0.752;2022-09-09T04:47:20;5.70;;;2.95;;
38811;SDS011;24553;51.640;-0.752;2022-09-09T04:49:46;5.70;;;2.90;;
38811;SDS011;24553;51.640;-0.752;2022-09-09T04:52:12;12.45;;;3.70;;
38811;SDS011;24553;51.640;-0.752;2022-09-09T04:54:37;3.90;;;2.92;;
38811;SDS011;24553;51.640;-0.752;2022-09-09T04:57:03;10.27;;;2.63;;
38811;SDS011;24553;51.640;-0.752;2022-09-09T04:59:29;4.60;;;3.20;;
38811;SDS011;24553;51.640;-0.752;2022-09-09T05:01:55;7.18;;;3.03;;
38811;SDS011;24553;51.640;-0.752;2022-09-09T05:04:20;2.10;;;1.42;;
38811;SDS011;24553;51.640;-0.752;2022-09-09T05:06:46;3.45;;;1.60;;
38811;SDS011;24553;51.640;-0.752;2022-09-09T05:09:11;6.00;;;1.95;;
38811;SDS011;24553;51.640;-0.752;2022-09-09T05:11:37;2.00;;;1.90;;
38811;SDS011;24553;51.640;-0.752;2022-09-09T05:14:03;6.65;;;3.15;;
38811;SDS011;24553;51.640;-0.752;2022-09-09T05:16:29;6.07;;;2.30;;
38811;SDS011;24553;51.640;-0.752;2022-09-09T05:18:55;4.43;;;2.55;;
38811;SDS011;24553;51.640;-0.752;2022-09-09T05:21:21;1.63;;;1.52;;
38811;SDS011;24553;51.640;-0.752;2022-09-09T05:23:48;3.70;;;1.80;;
38811;SDS011;24553;51.640;-0.752;2022-09-09T05:26:16;2.90;;;1.50;;
38811;SDS011;24553;51.640;-0.752;2022-09-09T05:28:43;6.70;;;2.95;;
38811;SDS011;24553;51.640;-0.752;2022-09-09T05:31:09;2.88;;;2.60;;
38811;SDS011;24553;51.640;-0.752;2022-09-09T05:33:37;6.57;;;3.05;;
38811;SDS011;24553;51.640;-0.752;2022-09-09T05:36:26;1.85;;;1.75;;
38811;SDS011;24553;51.640;-0.752;2022-09-09T05:38:51;5.00;;;2.35;;
38811;SDS011;24553;51.640;-0.752;2022-09-09T05:41:18;8.23;;;2.80;;
38811;SDS011;24553;51.640;-0.752;2022-09-09T05:43:45;1.80;;;1.60;;
38811;SDS011;24553;51.640;-0.752;2022-09-09T05:46:13;6.00;;;2.45;;
38811;SDS011;24553;51.640;-0.752;2022-09-09T05:48:40;5.25;;;2.47;;
38811;SDS011;24553;51.640;-0.752;2022-09-09T05:51:09;3.50;;;2.63;;
38811;SDS011;24553;51.640;-0.752;2022-09-09T05:53:40;6.80;;;3.35;;
38811;SDS011;24553;51.640;-0.752;2022-09-09T05:56:10;2.25;;;2.05;;
38811;SDS011;24553;51.640;-0.752;2022-09-09T05:58:41;9.10;;;3.22;;
38811;SDS011;24553;51.640;-0.752;2022-09-09T06:01:11;2.58;;;2.25;;
38811;SDS011;24553;51.640;-0.752;2022-09-09T06:03:39;4.53;;;2.08;;
38811;SDS011;24553;51.640;-0.752;2022-09-09T06:06:16;8.68;;;2.38;;
38811;SDS011;24553;51.640;-0.752;2022-09-09T06:08:43;7.15;;;3.35;;
38811;SDS011;24553;51.640;-0.752;2022-09-09T06:13:37;2.42;;;2.22;;
38811;SDS011;24553;51.640;-0.752;2022-09-09T06:16:05;3.35;;;2.72;;
38811;SDS011;24553;51.640;-0.752;2022-09-09T06:18:32;4.47;;;3.08;;
38811;SDS011;24553;51.640;-0.752;2022-09-09T06:20:58;6.85;;;2.95;;
38811;SDS011;24553;51.640;-0.752;2022-09-09T06:23:29;5.78;;;3.38;;
38811;SDS011;24553;51.640;-0.752;2022-09-09T06:26:09;8.02;;;3.08;;
38811;SDS011;24553;51.640;-0.752;2022-09-09T06:28:37;3.72;;;2.90;;
38811;SDS011;24553;51.640;-0.752;2022-09-09T06:31:04;4.93;;;2.17;;
38811;SDS011;24553;51.640;-0.752;2022-09-09T06:33:32;3.42;;;2.17;;
38811;SDS011;24553;51.640;-0.752;2022-09-09T06:36:09;2.40;;;2.20;;
38811;SDS011;24553;51.640;-0.752;2022-09-09T06:38:37;5.70;;;2.60;;
38811;SDS011;24553;51.640;-0.752;2022-09-09T06:41:02;4.32;;;3.45;;
38811;SDS011;24553;51.640;-0.752;2022-09-09T06:43:28;3.78;;;2.53;;
38811;SDS011;24553;51.640;-0.752;2022-09-09T06:46:04;3.63;;;2.30;;
38811;SDS011;24553;51.640;-0.752;2022-09-09T06:48:34;4.90;;;3.08;;
38811;SDS011;24553;51.640;-0.752;2022-09-09T06:51:00;5.20;;;3.45;;
38811;SDS011;24553;51.640;-0.752;2022-09-09T06:53:27;6.38;;;3.85;;
38811;SDS011;24553;51.640;-0.752;2022-09-09T06:55:53;5.00;;;4.25;;
38811;SDS011;24553;51.640;-0.752;2022-09-09T06:58:18;4.60;;;3.78;;
38811;SDS011;24553;51.640;-0.752;2022-09-09T07:00:43;4.20;;;3.67;;
38811;SDS011;24553;51.640;-0.752;2022-09-09T07:03:09;4.25;;;3.60;;
38811;SDS011;24553;51.640;-0.752;2022-09-09T07:05:35;3.92;;;3.28;;
38811;SDS011;24553;51.640;-0.752;2022-09-09T07:08:01;4.60;;;3.83;;
38811;SDS011;24553;51.640;-0.752;2022-09-09T07:10:27;10.90;;;4.18;;
38811;SDS011;24553;51.640;-0.752;2022-09-09T07:12:52;6.88;;;4.90;;
38811;SDS011;24553;51.640;-0.752;2022-09-09T07:15:18;5.93;;;4.00;;
38811;SDS011;24553;51.640;-0.752;2022-09-09T07:17:44;4.25;;;3.53;;
38811;SDS011;24553;51.640;-0.752;2022-09-09T07:20:10;7.13;;;5.20;;
38811;SDS011;24553;51.640;-0.752;2022-09-09T07:22:36;4.82;;;4.30;;
38811;SDS011;24553;51.640;-0.752;2022-09-09T07:25:02;5.93;;;4.45;;
38811;SDS011;24553;51.640;-0.752;2022-09-09T07:27:28;5.63;;;3.47;;
38811;SDS011;24553;51.640;-0.752;2022-09-09T07:29:53;8.77;;;4.28;;
38811;SDS011;24553;51.640;-0.752;2022-09-09T07:32:19;10.02;;;6.40;;
38811;SDS011;24553;51.640;-0.752;2022-09-09T07:34:45;4.88;;;4.38;;
38811;SDS011;24553;51.640;-0.752;2022-09-09T07:37:12;4.25;;;3.72;;
38811;SDS011;24553;51.640;-0.752;2022-09-09T07:39:38;5.90;;;3.28;;
38811;SDS011;24553;51.640;-0.752;2022-09-09T07:42:04;8.10;;;4.43;;
38811;SDS011;24553;51.640;-0.752;2022-09-09T07:44:30;8.25;;;4.47;;
38811;SDS011;24553;51.640;-0.752;2022-09-09T07:46:59;7.72;;;3.83;;
38811;SDS011;24553;51.640;-0.752;2022-09-09T07:49:25;5.72;;;4.03;;
38811;SDS011;24553;51.640;-0.752;2022-09-09T07:51:50;9.77;;;4.00;;
38811;SDS011;24553;51.640;-0.752;2022-09-09T07:54:16;10.35;;;6.82;;
38811;SDS011;24553;51.640;-0.752;2022-09-09T07:56:45;6.68;;;4.45;;
38811;SDS011;24553;51.640;-0.752;2022-09-09T07:59:12;8.95;;;5.20;;
38811;SDS011;24553;51.640;-0.752;2022-09-09T08:01:39;10.60;;;6.30;;
38811;SDS011;24553;51.640;-0.752;2022-09-09T08:04:11;9.85;;;5.57;;
38811;SDS011;24553;51.640;-0.752;2022-09-09T08:06:58;12.60;;;8.20;;
38811;SDS011;24553;51.640;-0.752;2022-09-09T08:09:24;10.55;;;7.70;;
38811;SDS011;24553;51.640;-0.752;2022-09-09T08:11:54;9.90;;;5.82;;
38811;SDS011;24553;51.640;-0.752;2022-09-09T08:14:21;15.45;;;6.82;;
38811;SDS011;24553;51.640;-0.752;2022-09-09T08:16:48;11.98;;;7.15;;
38811;SDS011;24553;51.640;-0.752;2022-09-09T08:19:15;15.15;;;8.18;;
38811;SDS011;24553;51.640;-0.752;2022-09-09T08:21:41;21.85;;;7.38;;
38811;SDS011;24553;51.640;-0.752;2022-09-09T08:24:08;8.40;;;6.05;;
38811;SDS011;24553;51.640;-0.752;2022-09-09T08:26:39;12.30;;;7.65;;
38811;SDS011;24553;51.640;-0.752;2022-09-09T08:29:10;11.30;;;6.32;;
38811;SDS011;24553;51.640;-0.752;2022-09-09T08:31:42;14.23;;;6.90;;
38811;SDS011;24553;51.640;-0.752;2022-09-09T08:34:12;16.33;;;8.15;;
38811;SDS011;24553;51.640;-0.752;2022-09-09T08:36:38;12.57;;;7.07;;
38811;SDS011;24553;51.640;-0.752;2022-09-09T08:39:07;11.65;;;6.70;;
38811;SDS011;24553;51.640;-0.752;2022-09-09T08:41:48;13.95;;;8.80;;
38811;SDS011;24553;51.640;-0.752;2022-09-09T08:58:08;11.30;;;6.80;;
38811;SDS011;24553;51.640;-0.752;2022-09-09T09:00:44;15.13;;;6.47;;
38811;SDS011;24553;51.640;-0.752;2022-09-09T09:12:11;8.95;;;5.57;;
38811;SDS011;24553;51.640;-0.752;2022-09-09T09:14:41;10.32;;;6.30;;
38811;SDS011;24553;51.640;-0.752;2022-09-09T09:17:10;11.45;;;7.28;;
38811;SDS011;24553;51.640;-0.752;2022-09-09T09:19:47;6.75;;;5.20;;
38811;SDS011;24553;51.640;-0.752;2022-09-09T09:25:02;6.90;;;4.38;;
38811;SDS011;24553;51.640;-0.752;2022-09-09T09:30:20;4.82;;;4.18;;
38811;SDS011;24553;51.640;-0.752;2022-09-09T09:32:54;4.05;;;2.63;;
38811;SDS011;24553;51.640;-0.752;2022-09-09T09:35:24;3.97;;;2.35;;
38811;SDS011;24553;51.640;-0.752;2022-09-09T09:37:50;2.97;;;2.42;;
38811;SDS011;24553;51.640;-0.752;2022-09-09T09:40:16;2.97;;;2.30;;
38811;SDS011;24553;51.640;-0.752;2022-09-09T09:45:45;4.88;;;2.45;;
38811;SDS011;24553;51.640;-0.752;2022-09-09T09:48:11;3.25;;;2.40;;
38811;SDS011;24553;51.640;-0.752;2022-09-09T09:50:49;6.53;;;3.20;;
38811;SDS011;24553;51.640;-0.752;2022-09-09T09:53:27;7.43;;;3.10;;
38811;SDS011;24553;51.640;-0.752;2022-09-09T09:55:59;8.63;;;2.42;;
38811;SDS011;24553;51.640;-0.752;2022-09-09T09:58:25;7.13;;;2.92;;
38811;SDS011;24553;51.640;-0.752;2022-09-09T10:00:53;3.45;;;2.63;;
38811;SDS011;24553;51.640;-0.752;2022-09-09T10:03:21;2.22;;;2.05;;
38811;SDS011;24553;51.640;-0.752;2022-09-09T10:05:54;5.78;;;2.00;;
38811;SDS011;24553;51.640;-0.752;2022-09-09T10:08:21;3.58;;;2.17;;
38811;SDS011;24553;51.640;-0.752;2022-09-09T10:13:32;1.73;;;1.38;;
38811;SDS011;24553;51.640;-0.752;2022-09-09T10:16:10;2.95;;;1.95;;
38811;SDS011;24553;51.640;-0.752;2022-09-09T10:18:59;2.45;;;1.30;;
38811;SDS011;24553;51.640;-0.752;2022-09-09T10:24:29;2.78;;;0.93;;
38811;SDS011;24553;51.640;-0.752;2022-09-09T10:32:37;2.08;;;1.70;;
38811;SDS011;24553;51.640;-0.752;2022-09-09T10:35:24;2.15;;;1.95;;
38811;SDS011;24553;51.640;-0.752;2022-09-09T10:46:02;7.82;;;3.55;;
38811;SDS011;24553;51.640;-0.752;2022-09-09T10:48:53;5.13;;;2.00;;
38811;SDS011;24553;51.640;-0.752;2022-09-09T10:51:26;10.30;;;3.33;;
38811;SDS011;24553;51.640;-0.752;2022-09-09T10:56:36;3.42;;;2.05;;
38811;SDS011;24553;51.640;-0.752;2022-09-09T10:59:06;4.70;;;3.08;;
38811;SDS011;24553;51.640;-0.752;2022-09-09T11:01:40;3.30;;;2.08;;
38811;SDS011;24553;51.640;-0.752;2022-09-09T11:04:12;4.82;;;2.35;;
38811;SDS011;24553;51.640;-0.752;2022-09-09T11:06:44;11.80;;;1.88;;
38811;SDS011;24553;51.640;-0.752;2022-09-09T11:09:19;2.35;;;1.15;;
38811;SDS011;24553;51.640;-0.752;2022-09-09T11:11:55;4.40;;;1.05;;
38811;SDS011;24553;51.640;-0.752;2022-09-09T11:17:00;1.38;;;0.60;;
38811;SDS011;24553;51.640;-0.752;2022-09-09T11:19:38;3.00;;;1.92;;
38811;SDS011;24553;51.640;-0.752;2022-09-09T11:38:15;3.70;;;0.47;;
38811;SDS011;24553;51.640;-0.752;2022-09-09T11:40:42;2.70;;;0.30;;
38811;SDS011;24553;51.640;-0.752;2022-09-09T11:43:17;0.50;;;0.17;;
38811;SDS011;24553;51.640;-0.752;2022-09-09T11:45:52;0.68;;;0.35;;
38811;SDS011;24553;51.640;-0.752;2022-09-09T11:51:08;1.13;;;0.40;;
38811;SDS011;24553;51.640;-0.752;2022-09-09T11:53:36;1.73;;;0.57;;
38811;SDS011;24553;51.640;-0.752;2022-09-09T11:56:23;2.78;;;1.10;;
38811;SDS011;24553;51.640;-0.752;2022-09-09T11:58:55;8.32;;;1.27;;
38811;SDS011;24553;51.640;-0.752;2022-09-09T12:01:30;1.00;;;0.60;;
38811;SDS011;24553;51.640;-0.752;2022-09-09T12:11:46;1.23;;;0.20;;
38811;SDS011;24553;51.640;-0.752;2022-09-09T12:19:41;2.53;;;0.85;;
38811;SDS011;24553;51.640;-0.752;2022-09-09T12:22:14;1.10;;;0.68;;
38811;SDS011;24553;51.640;-0.752;2022-09-09T12:24:58;2.22;;;0.25;;
38811;SDS011;24553;51.640;-0.752;2022-09-09T12:27:52;0.90;;;0.32;;
38811;SDS011;24553;51.640;-0.752;2022-09-09T12:30:35;0.10;;;0.10;;
38811;SDS011;24553;51.640;-0.752;2022-09-09T12:33:21;6.85;;;0.30;;
38811;SDS011;24553;51.640;-0.752;2022-09-09T12:35:54;0.60;;;0.15;;
38811;SDS011;24553;51.640;-0.752;2022-09-09T12:38:32;0.73;;;0.73;;
38811;SDS011;24553;51.640;-0.752;2022-09-09T12:41:01;0.35;;;0.10;;
38811;SDS011;24553;51.640;-0.752;2022-09-09T12:43:27;2.83;;;0.30;;
38811;SDS011;24553;51.640;-0.752;2022-09-09T12:45:57;0.50;;;0.10;;
38811;SDS011;24553;51.640;-0.752;2022-09-09T12:48:50;1.55;;;0.20;;
38811;SDS011;24553;51.640;-0.752;2022-09-09T12:53:51;0.47;;;0.30;;
38811;SDS011;24553;51.640;-0.752;2022-09-09T12:56:24;3.50;;;1.35;;
38811;SDS011;24553;51.640;-0.752;2022-09-09T12:58:52;2.65;;;1.45;;
38811;SDS011;24553;51.640;-0.752;2022-09-09T13:03:49;2.63;;;0.47;;
38811;SDS011;24553;51.640;-0.752;2022-09-09T13:06:20;1.48;;;0.30;;
38811;SDS011;24553;51.640;-0.752;2022-09-09T13:08:51;0.43;;;0.20;;
38811;SDS011;24553;51.640;-0.752;2022-09-09T13:11:39;1.10;;;0.22;;
38811;SDS011;24553;51.640;-0.752;2022-09-09T13:14:17;0.40;;;0.38;;
38811;SDS011;24553;51.640;-0.752;2022-09-09T13:16:58;0.90;;;0.30;;
38811;SDS011;24553;51.640;-0.752;2022-09-09T13:19:25;1.27;;;0.50;;
38811;SDS011;24553;51.640;-0.752;2022-09-09T13:21:53;0.30;;;0.30;;
38811;SDS011;24553;51.640;-0.752;2022-09-09T13:24:30;2.20;;;0.75;;
38811;SDS011;24553;51.640;-0.752;2022-09-09T13:26:58;2.08;;;0.45;;
38811;SDS011;24553;51.640;-0.752;2022-09-09T13:29:27;0.82;;;0.55;;
38811;SDS011;24553;51.640;-0.752;2022-09-09T13:31:53;0.47;;;0.30;;
38811;SDS011;24553;51.640;-0.752;2022-09-09T13:36:55;0.63;;;0.57;;
38811;SDS011;24553;51.640;-0.752;2022-09-09T13:39:27;1.75;;;0.50;;
38811;SDS011;24553;51.640;-0.752;2022-09-09T13:41:52;1.23;;;0.17;;
38811;SDS011;24553;51.640;-0.752;2022-09-09T13:44:25;0.95;;;0.47;;
38811;SDS011;24553;51.640;-0.752;2022-09-09T13:47:01;0.47;;;0.00;;
38811;SDS011;24553;51.640;-0.752;2022-09-09T13:49:29;0.20;;;0.20;;
38811;SDS011;24553;51.640;-0.752;2022-09-09T13:54:52;0.50;;;0.30;;
38811;SDS011;24553;51.640;-0.752;2022-09-09T13:57:20;1.27;;;0.40;;
38811;SDS011;24553;51.640;-0.752;2022-09-09T13:59:47;0.73;;;0.32;;
38811;SDS011;24553;51.640;-0.752;2022-09-09T14:02:13;2.15;;;0.25;;
38811;SDS011;24553;51.640;-0.752;2022-09-09T14:04:41;0.10;;;0.10;;
38811;SDS011;24553;51.640;-0.752;2022-09-09T14:07:09;0.50;;;0.38;;
38811;SDS011;24553;51.640;-0.752;2022-09-09T14:09:40;2.08;;;1.25;;
38811;SDS011;24553;51.640;-0.752;2022-09-09T14:12:15;1.38;;;0.50;;
38811;SDS011;24553;51.640;-0.752;2022-09-09T14:14:41;1.55;;;0.90;;
38811;SDS011;24553;51.640;-0.752;2022-09-09T14:17:07;1.50;;;1.00;;
38811;SDS011;24553;51.640;-0.752;2022-09-09T14:19:33;0.85;;;0.52;;
38811;SDS011;24553;51.640;-0.752;2022-09-09T14:21:59;0.98;;;0.60;;
38811;SDS011;24553;51.640;-0.752;2022-09-09T14:24:26;1.25;;;0.73;;
38811;SDS011;24553;51.640;-0.752;2022-09-09T14:26:52;0.73;;;0.60;;
38811;SDS011;24553;51.640;-0.752;2022-09-09T14:29:17;0.80;;;0.80;;
38811;SDS011;24553;51.640;-0.752;2022-09-09T14:31:42;2.28;;;1.15;;
38811;SDS011;24553;51.640;-0.752;2022-09-09T14:34:08;1.08;;;0.82;;
38811;SDS011;24553;51.640;-0.752;2022-09-09T14:36:34;0.57;;;0.43;;
38811;SDS011;24553;51.640;-0.752;2022-09-09T14:39:00;1.25;;;1.15;;
38811;SDS011;24553;51.640;-0.752;2022-09-09T14:41:25;0.88;;;0.75;;
38811;SDS011;24553;51.640;-0.752;2022-09-09T14:43:51;0.80;;;0.80;;
38811;SDS011;24553;51.640;-0.752;2022-09-09T14:46:17;0.90;;;0.50;;
38811;SDS011;24553;51.640;-0.752;2022-09-09T14:48:44;2.15;;;0.40;;
38811;SDS011;24553;51.640;-0.752;2022-09-09T14:51:28;1.00;;;0.60;;
38811;SDS011;24553;51.640;-0.752;2022-09-09T14:53:54;2.08;;;1.13;;
38811;SDS011;24553;51.640;-0.752;2022-09-09T14:56:22;0.95;;;0.30;;
38811;SDS011;24553;51.640;-0.752;2022-09-09T14:58:52;1.23;;;0.20;;
38811;SDS011;24553;51.640;-0.752;2022-09-09T15:01:20;1.90;;;0.50;;
38811;SDS011;24553;51.640;-0.752;2022-09-09T15:03:49;1.00;;;0.52;;
38811;SDS011;24553;51.640;-0.752;2022-09-09T15:06:19;1.13;;;0.13;;
38811;SDS011;24553;51.640;-0.752;2022-09-09T15:08:45;1.63;;;0.38;;
38811;SDS011;24553;51.640;-0.752;2022-09-09T15:11:13;0.63;;;0.20;;
38811;SDS011;24553;51.640;-0.752;2022-09-09T15:13:40;1.08;;;0.22;;
38811;SDS011;24553;51.640;-0.752;2022-09-09T15:16:08;0.68;;;0.20;;
38811;SDS011;24553;51.640;-0.752;2022-09-09T15:18:41;2.90;;;0.65;;
38811;SDS011;24553;51.640;-0.752;2022-09-09T15:21:15;0.10;;;0.10;;
38811;SDS011;24553;51.640;-0.752;2022-09-09T15:23:43;0.30;;;0.30;;
38811;SDS011;24553;51.640;-0.752;2022-09-09T15:26:08;5.57;;;0.20;;
38811;SDS011;24553;51.640;-0.752;2022-09-09T15:28:35;0.93;;;0.28;;
38811;SDS011;24553;51.640;-0.752;2022-09-09T15:31:07;1.75;;;1.10;;
38811;SDS011;24553;51.640;-0.752;2022-09-09T15:33:35;0.93;;;0.40;;
38811;SDS011;24553;51.640;-0.752;2022-09-09T15:36:12;2.10;;;1.27;;
38811;SDS011;24553;51.640;-0.752;2022-09-09T15:38:38;0.40;;;0.40;;
38811;SDS011;24553;51.640;-0.752;2022-09-09T15:41:03;2.83;;;0.70;;
38811;SDS011;24553;51.640;-0.752;2022-09-09T15:43:29;1.90;;;0.50;;
38811;SDS011;24553;51.640;-0.752;2022-09-09T15:45:57;3.03;;;0.80;;
38811;SDS011;24553;51.640;-0.752;2022-09-09T15:48:30;1.50;;;1.08;;
38811;SDS011;24553;51.640;-0.752;2022-09-09T15:51:01;1.00;;;0.43;;
38811;SDS011;24553;51.640;-0.752;2022-09-09T15:53:29;1.42;;;0.68;;
38811;SDS011;24553;51.640;-0.752;2022-09-09T15:55:57;3.53;;;1.05;;
38811;SDS011;24553;51.640;-0.752;2022-09-09T15:58:23;3.75;;;0.52;;
38811;SDS011;24553;51.640;-0.752;2022-09-09T16:00:48;1.35;;;0.40;;
38811;SDS011;24553;51.640;-0.752;2022-09-09T16:03:13;3.75;;;0.50;;
38811;SDS011;24553;51.640;-0.752;2022-09-09T16:05:39;0.60;;;0.35;;
38811;SDS011;24553;51.640;-0.752;2022-09-09T16:08:05;0.80;;;0.77;;
38811;SDS011;24553;51.640;-0.752;2022-09-09T16:10:31;4.03;;;0.80;;
38811;SDS011;24553;51.640;-0.752;2022-09-09T16:12:56;4.30;;;0.65;;
38811;SDS011;24553;51.640;-0.752;2022-09-09T16:15:21;2.25;;;0.50;;
38811;SDS011;24553;51.640;-0.752;2022-09-09T16:17:48;6.63;;;1.08;;
38811;SDS011;24553;51.640;-0.752;2022-09-09T16:20:14;1.98;;;0.73;;
38811;SDS011;24553;51.640;-0.752;2022-09-09T16:22:39;1.33;;;0.85;;
38811;SDS011;24553;51.640;-0.752;2022-09-09T16:25:05;3.05;;;0.63;;
38811;SDS011;24553;51.640;-0.752;2022-09-09T16:27:31;2.63;;;0.80;;
38811;SDS011;24553;51.640;-0.752;2022-09-09T16:29:56;2.38;;;0.77;;
38811;SDS011;24553;51.640;-0.752;2022-09-09T16:32:22;1.40;;;0.95;;
38811;SDS011;24553;51.640;-0.752;2022-09-09T16:34:47;0.68;;;0.45;;
38811;SDS011;24553;51.640;-0.752;2022-09-09T16:37:13;2.17;;;0.60;;
38811;SDS011;24553;51.640;-0.752;2022-09-09T16:39:38;1.63;;;0.60;;
38811;SDS011;24553;51.640;-0.752;2022-09-09T16:42:03;2.72;;;1.17;;
38811;SDS011;24553;51.640;-0.752;2022-09-09T16:44:29;2.08;;;0.68;;
38811;SDS011;24553;51.640;-0.752;2022-09-09T16:46:55;2.05;;;0.65;;
38811;SDS011;24553;51.640;-0.752;2022-09-09T16:49:21;2.47;;;1.23;;
38811;SDS011;24553;51.640;-0.752;2022-09-09T16:51:47;1.35;;;0.80;;
38811;SDS011;24553;51.640;-0.752;2022-09-09T16:54:14;1.67;;;0.80;;
38811;SDS011;24553;51.640;-0.752;2022-09-09T16:56:42;2.72;;;0.55;;
38811;SDS011;24553;51.640;-0.752;2022-09-09T16:59:11;1.27;;;0.88;;
38811;SDS011;24553;51.640;-0.752;2022-09-09T17:01:39;2.45;;;0.60;;
38811;SDS011;24553;51.640;-0.752;2022-09-09T17:04:06;2.90;;;0.85;;
38811;SDS011;24553;51.640;-0.752;2022-09-09T17:06:34;1.88;;;1.48;;
38811;SDS011;24553;51.640;-0.752;2022-09-09T17:09:02;2.47;;;0.70;;